Time;durP1;ratioP1;P1;durP2;ratioP2;P2;SDS_P1;SDS_P2;PMS_P1;PMS_P2;Temp;Humidity;BMP_temperature;BMP_pressure;BME280_temperature;BME280_humidity;BME280_pressure;Samples;Min_cycle;Max_cycle;Signal;HPM_P1;HPM_P2
2023/08/20 00:00:24;;;;;;;;;;;;;;;16.67;53.82;100837.19;5099345;28;1058;-57
2023/08/20 00:02:50;;;;;;;;;;;;;;;16.65;53.71;100827.56;5099344;28;1025;-58
2023/08/20 00:05:16;;;;;;;;;;;;;;;16.68;53.77;100838.84;5099216;28;1034;-58
2023/08/20 00:07:42;;;;;;;;;;;;;;;16.72;53.66;100842.69;5099358;28;880;-59
2023/08/20 00:10:08;;;;;;;;;;;;;;;16.65;53.77;100838.56;5099170;28;1906;-59
2023/08/20 00:12:33;;;;;;;;;;;;;;;16.65;53.54;100846.78;5099304;28;1022;-58
2023/08/20 00:15:05;;;;;;;;;;;;;;;16.70;53.39;100846.81;5099011;28;1098;-58
2023/08/20 00:17:37;;;;;;;;;;;;;;;16.67;53.60;100842.69;5099166;28;1023;-58
2023/08/20 00:20:12;;;;;;;;;;;;;;;16.62;53.70;100850.94;5098415;28;1153;-58
2023/08/20 00:22:42;;;;;;;;;;;;;;;16.70;53.34;100847.63;5099128;28;1101;-58
2023/08/20 00:25:07;;;;;;;;;;;;;;;16.65;53.49;100844.91;5099196;28;1102;-58
2023/08/20 00:27:33;;;;;;;;;;;;;;;16.66;53.40;100849.28;5104583;28;1173;-58
2023/08/20 00:29:58;;;;;;;;;;;;;;;16.71;53.59;100852.03;5099333;28;1979;-57
2023/08/20 00:32:24;;;;;;;;;;;;;;;16.63;53.44;100851.75;5098723;28;963;-58
2023/08/20 00:34:49;;;;;;;;;;;;;;;16.61;53.49;100849.28;5098186;28;902;-57
2023/08/20 00:37:15;;;;;;;;;;;;;;;16.68;53.65;100844.34;5098948;28;1121;-58
2023/08/20 00:39:41;;;;;;;;;;;;;;;16.62;53.61;100855.59;5080937;28;1424;-58
2023/08/20 00:42:07;;;;;;;;;;;;;;;16.66;53.26;100846.56;5098771;28;1121;-58
2023/08/20 00:44:33;;;;;;;;;;;;;;;16.62;53.71;100848.19;5086352;28;1288;-58
2023/08/20 00:47:00;;;;;;;;;;;;;;;16.63;53.75;100846.25;5080427;28;1106;-58
2023/08/20 00:49:25;;;;;;;;;;;;;;;16.63;53.42;100838.84;5079793;28;1906;-58
2023/08/20 00:51:51;;;;;;;;;;;;;;;16.64;53.36;100843.22;5080253;28;1152;-58
2023/08/20 00:54:16;;;;;;;;;;;;;;;16.66;53.61;100846.56;5085148;28;990;-59
2023/08/20 00:56:42;;;;;;;;;;;;;;;16.60;53.77;100833.91;5097977;28;926;-59
2023/08/20 00:59:07;;;;;;;;;;;;;;;16.66;53.48;100841.06;5080188;28;1173;-58
2023/08/20 01:01:33;;;;;;;;;;;;;;;16.59;53.69;100838.56;5063944;28;1122;-57
2023/08/20 01:03:58;;;;;;;;;;;;;;;16.63;53.55;100841.56;5098271;28;1006;-57
2023/08/20 01:06:34;;;;;;;;;;;;;;;16.64;53.41;100845.97;5098302;28;1050;-58
2023/08/20 01:09:20;;;;;;;;;;;;;;;16.56;53.72;100841.88;5086610;28;1905;-57
2023/08/20 01:11:47;;;;;;;;;;;;;;;16.51;53.83;100843.75;5077308;28;1707;-58
2023/08/20 01:14:16;;;;;;;;;;;;;;;16.62;53.61;100839.09;5079886;28;1058;-58
2023/08/20 01:16:41;;;;;;;;;;;;;;;16.57;53.49;100842.69;5097826;28;1093;-57
2023/08/20 01:19:08;;;;;;;;;;;;;;;16.60;53.62;100839.38;5097954;28;1213;-57
2023/08/20 01:21:53;;;;;;;;;;;;;;;16.65;53.47;100838.56;5079908;28;1125;-58
2023/08/20 01:24:39;;;;;;;;;;;;;;;16.57;53.35;100837.19;5081129;28;1130;-57
2023/08/20 01:27:24;;;;;;;;;;;;;;;16.58;53.42;100836.09;5079547;28;1260;-58
2023/08/20 01:29:49;;;;;;;;;;;;;;;16.57;53.35;100842.69;5097521;28;1901;-58
2023/08/20 01:32:15;;;;;;;;;;;;;;;16.58;53.48;100844.34;5097821;28;829;-58
2023/08/20 01:34:41;;;;;;;;;;;;;;;16.58;53.42;100844.34;5079005;28;1154;-58
2023/08/20 01:37:07;;;;;;;;;;;;;;;16.56;53.62;100835.53;5079896;28;1229;-58
2023/08/20 01:39:34;;;;;;;;;;;;;;;16.57;53.68;100839.94;5097662;28;1169;-58
2023/08/20 01:42:00;;;;;;;;;;;;;;;16.54;53.77;100840.47;5097839;28;1126;-59
2023/08/20 01:44:25;;;;;;;;;;;;;;;16.48;53.94;100833.31;5078917;28;1043;-58
2023/08/20 01:46:51;;;;;;;;;;;;;;;16.56;53.60;100836.38;5079286;28;1183;-58
2023/08/20 01:49:16;;;;;;;;;;;;;;;16.51;53.40;100827.28;5097193;28;1970;-58
2023/08/20 01:51:42;;;;;;;;;;;;;;;16.60;53.43;100834.72;5097559;28;1142;-57
2023/08/20 01:54:07;;;;;;;;;;;;;;;16.52;53.59;100843.50;5079296;28;1097;-57
2023/08/20 01:56:33;;;;;;;;;;;;;;;16.47;53.62;100826.19;5097013;28;1091;-58
2023/08/20 01:58:58;;;;;;;;;;;;;;;16.54;53.65;100832.25;5078931;28;1194;-58
2023/08/20 02:01:24;;;;;;;;;;;;;;;16.52;53.40;100817.94;5079076;28;1273;-58
2023/08/20 02:03:50;;;;;;;;;;;;;;;16.46;53.78;100822.63;5096730;28;1104;-58
2023/08/20 02:06:16;;;;;;;;;;;;;;;16.51;53.65;100822.63;5079061;28;1567;-58
2023/08/20 02:08:44;;;;;;;;;;;;;;;16.51;53.50;100828.13;5078263;28;1962;-58
2023/08/20 02:11:10;;;;;;;;;;;;;;;16.51;53.57;100828.13;5096855;28;1077;-58
2023/08/20 02:13:35;;;;;;;;;;;;;;;16.56;53.68;100816.31;5097599;28;1126;-59
2023/08/20 02:16:01;;;;;;;;;;;;;;;16.55;53.55;100831.13;5079258;28;1277;-59
2023/08/20 02:18:27;;;;;;;;;;;;;;;16.56;53.58;100824.56;5096557;28;1175;-59
2023/08/20 02:20:53;;;;;;;;;;;;;;;16.49;53.69;100816.56;5096738;28;933;-59
2023/08/20 02:23:18;;;;;;;;;;;;;;;16.47;53.64;100821.53;5083555;28;1086;-59
2023/08/20 02:25:44;;;;;;;;;;;;;;;16.50;53.71;100831.13;5096869;28;1114;-59
2023/08/20 02:28:09;;;;;;;;;;;;;;;16.48;53.59;100825.09;5096802;28;1145;-58
2023/08/20 02:30:41;;;;;;;;;;;;;;;16.48;53.71;100827.81;5078712;28;1972;-58
2023/08/20 02:33:06;;;;;;;;;;;;;;;16.43;53.60;100834.13;5096337;28;1214;-58
2023/08/20 02:35:32;;;;;;;;;;;;;;;16.49;53.66;100841.28;5097005;28;1208;-58
2023/08/20 02:37:57;;;;;;;;;;;;;;;16.49;53.33;100840.47;5096508;28;1134;-58
2023/08/20 02:40:23;;;;;;;;;;;;;;;16.47;53.82;100839.94;5078531;28;1628;-58
2023/08/20 02:42:48;;;;;;;;;;;;;;;17.73;54.08;100853.09;5096700;28;1320;-58
2023/08/20 02:45:14;;;;;;;;;;;;;;;17.22;55.13;100847.69;5096921;28;869;-58
2023/08/20 02:47:39;;;;;;;;;;;;;;;17.04;54.92;100858.13;5078405;28;1410;-58
2023/08/20 02:50:05;;;;;;;;;;;;;;;16.95;54.67;100847.97;5096216;28;1893;-58
2023/08/20 02:52:31;;;;;;;;;;;;;;;16.84;54.43;100847.09;5096086;28;1081;-58
2023/08/20 02:54:56;;;;;;;;;;;;;;;16.77;54.43;100845.47;5096287;28;1145;-58
2023/08/20 02:57:22;;;;;;;;;;;;;;;16.80;54.20;100851.50;5096471;28;1030;-58
2023/08/20 02:59:47;;;;;;;;;;;;;;;16.75;54.05;100850.38;5078430;28;1432;-58
2023/08/20 03:02:13;;;;;;;;;;;;;;;16.71;54.04;100849.28;5078034;28;1257;-57
2023/08/20 03:04:38;;;;;;;;;;;;;;;16.70;53.80;100842.13;5096737;28;1221;-58
2023/08/20 03:07:04;;;;;;;;;;;;;;;16.68;53.84;100849.84;5096575;28;1185;-59
2023/08/20 03:09:30;;;;;;;;;;;;;;;16.64;53.90;100851.47;5073380;28;1906;-59
2023/08/20 03:11:55;;;;;;;;;;;;;;;16.64;53.56;100853.41;5078329;28;1331;-59
2023/08/20 03:14:21;;;;;;;;;;;;;;;16.64;53.76;100853.41;5085993;28;2684;-55
2023/08/20 03:16:46;;;;;;;;;;;;;;;16.60;53.50;100844.88;5096464;28;2191;-53
2023/08/20 03:19:14;;;;;;;;;;;;;;;16.64;53.41;100837.75;5099874;28;2048;-53
2023/08/20 03:21:39;;;;;;;;;;;;;;;16.53;53.41;100847.06;5099447;28;1816;-55
2023/08/20 03:24:05;;;;;;;;;;;;;;;16.62;53.43;100850.94;5099258;28;2084;-52
2023/08/20 03:26:31;;;;;;;;;;;;;;;16.54;53.29;100841.28;5099434;28;1819;-54
2023/08/20 03:28:57;;;;;;;;;;;;;;;16.54;53.48;100845.97;5081341;28;1956;-53
2023/08/20 03:31:24;;;;;;;;;;;;;;;16.54;53.55;100843.22;5099738;28;1120;-56
2023/08/20 03:33:49;;;;;;;;;;;;;;;16.45;53.69;100837.41;5099265;28;989;-57
2023/08/20 03:36:15;;;;;;;;;;;;;;;16.51;53.61;100838.25;5099944;28;1057;-56
2023/08/20 03:38:41;;;;;;;;;;;;;;;16.49;53.49;100841.28;5081531;28;1113;-57
2023/08/20 03:41:06;;;;;;;;;;;;;;;16.51;53.42;100843.75;5099332;28;1074;-57
2023/08/20 03:43:32;;;;;;;;;;;;;;;16.45;53.30;100833.88;5081320;28;1241;-56
2023/08/20 03:45:57;;;;;;;;;;;;;;;16.45;53.67;100844.84;5080816;28;1228;-56
2023/08/20 03:48:24;;;;;;;;;;;;;;;16.43;53.27;100836.88;5099465;28;1178;-55
2023/08/20 03:50:49;;;;;;;;;;;;;;;16.42;53.41;100830.59;5099878;28;1984;-56
2023/08/20 03:53:15;;;;;;;;;;;;;;;16.55;53.41;100839.38;5080489;28;1016;-55
2023/08/20 03:55:42;;;;;;;;;;;;;;;16.51;53.52;100849.25;5081304;28;1280;-56
2023/08/20 03:58:08;;;;;;;;;;;;;;;16.50;53.54;100839.38;5080634;28;2332;-55
2023/08/20 04:00:34;;;;;;;;;;;;;;;16.51;53.59;100841.00;5080974;28;1332;-52
2023/08/20 04:03:01;;;;;;;;;;;;;;;17.64;54.50;100843.75;5080878;28;1301;-48
2023/08/20 04:05:27;;;;;;;;;;;;;;;17.41;54.60;100835.00;5099056;28;1082;-54
2023/08/20 04:07:52;;;;;;;;;;;;;;;17.10;54.71;100839.72;5098952;28;1137;-54
2023/08/20 04:10:20;;;;;;;;;;;;;;;17.00;54.62;100846.03;5099180;28;1980;-56
2023/08/20 04:12:45;;;;;;;;;;;;;;;16.94;54.19;100836.13;5098566;28;1069;-57
2023/08/20 04:15:11;;;;;;;;;;;;;;;16.88;54.19;100837.22;5081204;28;1042;-57
2023/08/20 04:17:38;;;;;;;;;;;;;;;16.83;54.19;100837.22;5080576;28;1351;-57
2023/08/20 04:20:07;;;;;;;;;;;;;;;16.83;54.01;100837.22;5080333;28;1209;-56
2023/08/20 04:22:33;;;;;;;;;;;;;;;16.77;54.05;100831.72;5080279;28;1111;-55
2023/08/20 04:24:58;;;;;;;;;;;;;;;16.81;53.87;100836.66;5098783;28;998;-54
2023/08/20 04:27:25;;;;;;;;;;;;;;;16.82;53.48;100839.13;5079743;28;1211;-58
2023/08/20 04:29:50;;;;;;;;;;;;;;;16.73;53.63;100841.63;5071128;28;2170;-58
2023/08/20 04:32:16;;;;;;;;;;;;;;;16.79;53.63;100838.84;5080190;28;1209;-56
2023/08/20 04:34:42;;;;;;;;;;;;;;;16.71;53.46;100832.00;5080284;28;1296;-54
2023/08/20 04:37:07;;;;;;;;;;;;;;;16.71;53.49;100834.75;5098713;28;971;-58
2023/08/20 04:39:33;;;;;;;;;;;;;;;16.75;53.39;100836.66;5079963;28;1126;-58
2023/08/20 04:42:00;;;;;;;;;;;;;;;16.76;53.46;100849.28;5098765;28;1074;-53
2023/08/20 04:44:26;;;;;;;;;;;;;;;16.71;53.37;100849.28;5080373;28;1157;-54
2023/08/20 04:46:53;;;;;;;;;;;;;;;17.68;53.82;100838.53;5080107;28;1232;-57
2023/08/20 04:49:19;;;;;;;;;;;;;;;16.89;53.69;100836.16;5098805;28;1909;-56
2023/08/20 04:51:44;;;;;;;;;;;;;;;16.72;52.17;100842.69;5079808;28;1231;-55
2023/08/20 04:54:10;;;;;;;;;;;;;;;16.68;51.19;100838.03;5098050;28;1023;-57
2023/08/20 04:56:35;;;;;;;;;;;;;;;16.61;50.35;100838.28;5079546;28;1047;-58
2023/08/20 04:59:01;;;;;;;;;;;;;;;16.66;49.65;100840.22;5066630;28;2508;-54
2023/08/20 05:01:45;;;;;;;;;;;;;;;17.48;51.43;100833.91;5097795;28;1074;-56
2023/08/20 05:04:12;;;;;;;;;;;;;;;17.23;51.74;100833.66;5079993;28;1682;-53
2023/08/20 05:06:37;;;;;;;;;;;;;;;17.00;50.59;100828.72;5079471;28;1221;-57
2023/08/20 05:09:03;;;;;;;;;;;;;;;16.90;50.14;100824.06;5073925;28;1906;-54
2023/08/20 05:11:31;;;;;;;;;;;;;;;17.00;49.02;100815.81;5093653;28;1054;-55
2023/08/20 05:13:57;;;;;;;;;;;;;;;16.90;48.60;100815.81;5079616;28;1133;-54
2023/08/20 05:16:23;;;;;;;;;;;;;;;16.90;48.52;100813.91;5079464;28;1394;-53
2023/08/20 05:18:49;;;;;;;;;;;;;;;17.03;47.81;100808.97;5079920;28;1366;-55
2023/08/20 05:21:15;;;;;;;;;;;;;;;16.90;48.11;100815.81;5079297;28;1569;-51
2023/08/20 05:23:40;;;;;;;;;;;;;;;16.95;47.84;100815.00;5079656;28;1098;-57
2023/08/20 05:26:07;;;;;;;;;;;;;;;17.75;49.21;100820.63;5079519;28;1375;-56
2023/08/20 05:28:33;;;;;;;;;;;;;;;17.28;49.40;100814.41;5079284;28;1827;-57
2023/08/20 05:30:59;;;;;;;;;;;;;;;17.29;48.88;100804.25;5096745;28;1913;-56
2023/08/20 05:33:24;;;;;;;;;;;;;;;17.18;48.81;100808.94;5079222;28;1154;-57
2023/08/20 05:35:50;;;;;;;;;;;;;;;17.21;48.12;100807.56;5078944;28;1153;-58
2023/08/20 05:38:16;;;;;;;;;;;;;;;17.19;47.99;100805.06;5079385;28;1236;-60
2023/08/20 05:40:44;;;;;;;;;;;;;;;17.22;47.56;100806.44;5078321;28;1078;-58
2023/08/20 05:43:09;;;;;;;;;;;;;;;17.22;47.50;100803.72;5079246;28;1200;-54
2023/08/20 05:45:36;;;;;;;;;;;;;;;17.26;47.12;100802.06;5078490;28;1446;-58
2023/08/20 05:48:02;;;;;;;;;;;;;;;17.32;47.46;100806.47;5078796;28;1183;-52
2023/08/20 05:50:27;;;;;;;;;;;;;;;17.34;48.23;100812.47;5078859;28;1910;-56
2023/08/20 05:52:53;;;;;;;;;;;;;;;17.34;47.79;100811.66;5078797;28;1353;-53
2023/08/20 05:55:20;;;;;;;;;;;;;;;17.29;47.65;100807.00;5078843;28;1186;-49
2023/08/20 05:57:46;;;;;;;;;;;;;;;17.39;47.91;100807.00;5078542;28;1154;-53
2023/08/20 06:00:12;;;;;;;;;;;;;;;17.36;47.58;100803.97;5093464;28;2530;-56
2023/08/20 06:02:40;;;;;;;;;;;;;;;17.41;47.27;100795.72;5096671;28;1003;-59
2023/08/20 06:05:06;;;;;;;;;;;;;;;17.28;47.38;100803.44;5078756;28;1269;-56
2023/08/20 06:07:31;;;;;;;;;;;;;;;17.34;47.21;100798.75;5096814;28;1417;-52
2023/08/20 06:09:57;;;;;;;;;;;;;;;17.38;47.12;100799.84;5095855;28;1913;-52
2023/08/20 06:12:23;;;;;;;;;;;;;;;17.37;47.12;100800.94;5096614;28;1105;-51
2023/08/20 06:14:48;;;;;;;;;;;;;;;17.40;47.06;100799.56;5096532;28;1058;-58
2023/08/20 06:17:14;;;;;;;;;;;;;;;17.36;47.06;100804.81;5096285;28;1042;-53
2023/08/20 06:19:39;;;;;;;;;;;;;;;17.40;47.10;100799.56;5096416;28;995;-54
2023/08/20 06:22:05;;;;;;;;;;;;;;;17.38;47.11;100802.59;5086649;28;1014;-57
2023/08/20 06:24:30;;;;;;;;;;;;;;;17.41;47.13;100801.22;5080583;28;1022;-56
2023/08/20 06:26:56;;;;;;;;;;;;;;;17.47;46.95;100799.28;5096488;28;991;-58
2023/08/20 06:29:24;;;;;;;;;;;;;;;17.47;47.10;100808.31;5086564;28;2309;-57
2023/08/20 06:31:50;;;;;;;;;;;;;;;17.45;46.91;100796.81;5096419;28;1078;-58
2023/08/20 06:34:15;;;;;;;;;;;;;;;17.40;47.03;100794.91;5096128;28;1043;-49
2023/08/20 06:36:41;;;;;;;;;;;;;;;17.44;47.07;100800.66;5096213;28;995;-60
2023/08/20 06:39:06;;;;;;;;;;;;;;;17.48;46.88;100803.66;5096158;28;1054;-59
2023/08/20 06:41:33;;;;;;;;;;;;;;;17.42;46.98;100802.88;5095691;28;1118;-57
2023/08/20 06:43:58;;;;;;;;;;;;;;;17.56;46.76;100797.59;5096092;28;1042;-58
2023/08/20 06:46:24;;;;;;;;;;;;;;;17.47;47.04;100808.31;5095751;28;837;-57
2023/08/20 06:48:49;;;;;;;;;;;;;;;17.55;46.62;100790.44;5086103;28;1315;-58
2023/08/20 06:51:15;;;;;;;;;;;;;;;17.49;47.09;100794.31;5095999;28;1979;-63
2023/08/20 06:53:41;;;;;;;;;;;;;;;17.51;47.02;100783.88;5095909;28;1006;-61
2023/08/20 06:56:09;;;;;;;;;;;;;;;17.52;46.92;100783.59;5096248;28;1457;-58
2023/08/20 06:58:35;;;;;;;;;;;;;;;17.51;46.96;100787.44;5093375;28;2550;-56
2023/08/20 07:01:07;;;;;;;;;;;;;;;17.60;46.83;100783.00;5096259;28;1129;-52
2023/08/20 07:03:33;;;;;;;;;;;;;;;17.72;47.07;100784.63;5096325;28;1018;-54
2023/08/20 07:05:59;;;;;;;;;;;;;;;17.62;47.56;100779.97;5096040;28;1042;-54
2023/08/20 07:08:24;;;;;;;;;;;;;;;17.71;47.05;100783.81;5096069;28;1007;-55
2023/08/20 07:10:50;;;;;;;;;;;;;;;17.71;47.15;100781.06;5094739;28;1913;-56
2023/08/20 07:13:15;;;;;;;;;;;;;;;17.73;47.09;100778.81;5094459;28;1197;-55
2023/08/20 07:15:41;;;;;;;;;;;;;;;17.71;47.10;100786.56;5075982;28;1008;-57
2023/08/20 07:18:06;;;;;;;;;;;;;;;17.82;47.04;100786.50;5076162;28;971;-58
2023/08/20 07:20:32;;;;;;;;;;;;;;;17.75;47.09;100778.53;5075944;28;1525;-57
2023/08/20 07:22:57;;;;;;;;;;;;;;;17.70;46.90;100786.84;5088539;28;1039;-61
2023/08/20 07:25:23;;;;;;;;;;;;;;;17.72;46.94;100785.44;5096062;28;1110;-58
2023/08/20 07:27:49;;;;;;;;;;;;;;;17.78;46.91;100787.06;5084053;28;1114;-66
2023/08/20 07:30:14;;;;;;;;;;;;;;;17.78;46.87;100783.47;5086454;28;2224;-63
2023/08/20 07:32:40;;;;;;;;;;;;;;;17.82;46.80;100781.81;5079544;28;1184;-58
2023/08/20 07:35:05;;;;;;;;;;;;;;;17.95;47.13;100781.25;5075612;28;856;-59
2023/08/20 07:37:31;;;;;;;;;;;;;;;17.88;47.01;100777.09;5091082;28;1000;-60
2023/08/20 07:39:56;;;;;;;;;;;;;;;17.90;47.00;100775.72;5093585;28;962;-63
2023/08/20 07:42:22;;;;;;;;;;;;;;;17.89;47.11;100765.00;5077815;28;1074;-58
2023/08/20 07:44:48;;;;;;;;;;;;;;;17.90;47.64;100770.22;5095782;28;955;-58
2023/08/20 07:47:13;;;;;;;;;;;;;;;17.95;47.21;100763.94;5084083;28;1085;-58
2023/08/20 07:49:39;;;;;;;;;;;;;;;17.99;47.13;100766.91;5094849;28;1905;-58
2023/08/20 07:52:04;;;;;;;;;;;;;;;17.97;47.09;100758.94;5085651;28;1133;-59
2023/08/20 07:54:30;;;;;;;;;;;;;;;17.98;46.96;100751.50;5083526;28;1089;-60
2023/08/20 07:56:55;;;;;;;;;;;;;;;17.99;47.10;100745.72;5094188;28;1127;-59
2023/08/20 07:59:21;;;;;;;;;;;;;;;18.01;46.61;100754.53;5083033;28;1910;-60
2023/08/20 08:01:47;;;;;;;;;;;;;;;18.00;46.79;100752.06;5080728;28;1038;-60
2023/08/20 08:04:12;;;;;;;;;;;;;;;18.04;46.73;100753.13;5098999;28;1056;-60
2023/08/20 08:06:38;;;;;;;;;;;;;;;18.12;46.59;100747.84;5080399;28;1034;-59
2023/08/20 08:09:26;;;;;;;;;;;;;;;18.02;46.95;100747.09;5090179;28;1960;-59
2023/08/20 08:11:51;;;;;;;;;;;;;;;18.04;46.63;100742.13;5079010;28;852;-58
2023/08/20 08:14:17;;;;;;;;;;;;;;;18.05;46.56;100741.84;5092182;28;1111;-59
2023/08/20 08:16:43;;;;;;;;;;;;;;;18.07;46.81;100758.88;5078477;28;1004;-62
2023/08/20 08:19:08;;;;;;;;;;;;;;;18.10;46.64;100739.06;5091603;28;1095;-61
2023/08/20 08:21:34;;;;;;;;;;;;;;;18.17;46.47;100744.22;5078539;28;1011;-59
2023/08/20 08:23:59;;;;;;;;;;;;;;;18.04;46.86;100748.44;5093026;28;881;-58
2023/08/20 08:26:25;;;;;;;;;;;;;;;18.15;46.53;100748.41;5098702;28;1042;-58
2023/08/20 08:28:50;;;;;;;;;;;;;;;17.87;46.73;100717.72;5087538;28;1950;-58
2023/08/20 08:31:16;;;;;;;;;;;;;;;18.11;46.80;100754.44;5095743;28;1906;-59
2023/08/20 08:33:41;;;;;;;;;;;;;;;18.21;46.53;100744.50;5087713;28;1098;-58
2023/08/20 08:36:06;;;;;;;;;;;;;;;18.10;46.86;100747.31;5081837;28;891;-62
2023/08/20 08:38:32;;;;;;;;;;;;;;;18.13;46.79;100741.25;5087528;28;1157;-60
2023/08/20 08:40:57;;;;;;;;;;;;;;;18.23;46.57;100745.03;5095198;28;1053;-58
2023/08/20 08:43:23;;;;;;;;;;;;;;;18.20;46.70;100745.59;5087975;28;1021;-58
2023/08/20 08:45:48;;;;;;;;;;;;;;;18.10;46.97;100741.81;5097590;28;1152;-58
2023/08/20 08:48:14;;;;;;;;;;;;;;;18.25;46.71;100748.31;5069682;28;929;-59
2023/08/20 08:50:40;;;;;;;;;;;;;;;18.23;46.80;100739.50;5091226;28;1984;-58
2023/08/20 08:53:06;;;;;;;;;;;;;;;18.33;46.71;100738.63;5088705;28;1112;-59
2023/08/20 08:55:31;;;;;;;;;;;;;;;18.28;46.87;100745.00;5084384;28;1070;-58
2023/08/20 08:57:57;;;;;;;;;;;;;;;18.29;46.83;100743.91;5097679;28;1011;-59
2023/08/20 09:00:22;;;;;;;;;;;;;;;18.33;46.94;100741.38;5078999;28;2150;-60
2023/08/20 09:02:48;;;;;;;;;;;;;;;18.28;47.95;100736.75;5088911;28;1119;-58
2023/08/20 09:05:14;;;;;;;;;;;;;;;18.64;48.77;100733.72;5093965;28;1106;-58
2023/08/20 09:07:43;;;;;;;;;;;;;;;18.51;48.39;100723.34;5070412;28;1202;-59
2023/08/20 09:10:09;;;;;;;;;;;;;;;18.49;47.94;100723.63;5080352;28;1986;-59
2023/08/20 09:12:35;;;;;;;;;;;;;;;18.50;47.88;100739.06;5088049;28;849;-59
2023/08/20 09:15:01;;;;;;;;;;;;;;;18.51;47.55;100734.34;5097454;28;1026;-60
2023/08/20 09:17:27;;;;;;;;;;;;;;;18.49;47.78;100740.16;5081098;28;1015;-59
2023/08/20 09:19:53;;;;;;;;;;;;;;;18.47;47.37;100734.94;5077497;28;1003;-58
2023/08/20 09:22:19;;;;;;;;;;;;;;;18.45;47.30;100742.69;5093558;28;1105;-58
2023/08/20 09:24:45;;;;;;;;;;;;;;;18.56;47.28;100737.09;5097071;28;935;-59
2023/08/20 09:27:14;;;;;;;;;;;;;;;18.48;47.15;100727.50;5081102;28;1062;-59
2023/08/20 09:29:45;;;;;;;;;;;;;;;18.54;47.39;100726.34;5081078;28;1982;-59
2023/08/20 09:32:15;;;;;;;;;;;;;;;18.56;47.61;100726.06;5077775;28;1019;-59
2023/08/20 09:34:41;;;;;;;;;;;;;;;18.58;47.54;100727.44;5095431;28;1441;-58
2023/08/20 09:37:10;;;;;;;;;;;;;;;18.66;47.06;100728.72;5085410;28;1058;-58
2023/08/20 09:39:35;;;;;;;;;;;;;;;18.59;47.45;100728.25;5082364;28;1686;-55
2023/08/20 09:42:01;;;;;;;;;;;;;;;18.53;47.33;100730.22;5083245;28;985;-61
2023/08/20 09:44:27;;;;;;;;;;;;;;;18.69;47.16;100725.41;5082816;28;991;-61
2023/08/20 09:46:53;;;;;;;;;;;;;;;18.66;47.05;100728.72;5087363;28;957;-57
2023/08/20 09:49:18;;;;;;;;;;;;;;;18.67;47.18;100729.56;5096943;28;1909;-57
2023/08/20 09:51:44;;;;;;;;;;;;;;;18.61;47.22;100721.34;5065090;28;1172;-56
2023/08/20 09:54:26;;;;;;;;;;;;;;;18.64;47.00;100722.69;5075683;28;1114;-57
2023/08/20 09:56:53;;;;;;;;;;;;;;;18.69;47.09;100725.41;5076691;28;1014;-56
2023/08/20 09:59:19;;;;;;;;;;;;;;;18.76;46.99;100725.91;5061311;28;1817;-58
2023/08/20 10:01:44;;;;;;;;;;;;;;;18.73;46.82;100720.97;5083326;28;1155;-58
2023/08/20 10:04:10;;;;;;;;;;;;;;;18.68;47.16;100715.50;5096532;28;1077;-56
2023/08/20 10:06:35;;;;;;;;;;;;;;;18.77;46.96;100722.00;5082990;28;968;-57
2023/08/20 10:09:01;;;;;;;;;;;;;;;18.77;46.92;100715.69;5091427;28;1117;-54
2023/08/20 10:11:26;;;;;;;;;;;;;;;18.72;46.92;100719.31;5069845;28;1906;-57
2023/08/20 10:13:52;;;;;;;;;;;;;;;18.76;47.06;100717.63;5072968;28;1082;-57
2023/08/20 10:16:20;;;;;;;;;;;;;;;18.78;46.97;100728.34;5088792;28;1080;-55
2023/08/20 10:18:46;;;;;;;;;;;;;;;18.81;47.58;100734.09;5078747;28;1128;-59
2023/08/20 10:21:12;;;;;;;;;;;;;;;19.07;49.50;100724.78;5074970;28;1058;-56
2023/08/20 10:23:40;;;;;;;;;;;;;;;19.11;50.24;100726.69;5089485;28;1101;-58
2023/08/20 10:26:09;;;;;;;;;;;;;;;19.26;50.30;100733.13;5088278;28;1118;-57
2023/08/20 10:28:34;;;;;;;;;;;;;;;16.79;57.88;100731.75;5092370;28;1797;-58
2023/08/20 10:31:18;;;;;;;;;;;;;;;18.66;51.71;100725.97;5095410;28;1902;-57
2023/08/20 10:33:46;;;;;;;;;;;;;;;18.83;50.24;100711.78;5092288;28;1053;-57
2023/08/20 10:36:22;;;;;;;;;;;;;;;18.94;49.13;100721.63;5086834;28;880;-54
2023/08/20 10:38:47;;;;;;;;;;;;;;;18.92;49.01;100707.31;5095923;28;1054;-56
2023/08/20 10:41:16;;;;;;;;;;;;;;;18.92;48.61;100728.53;5084387;28;1082;-57
2023/08/20 10:43:52;;;;;;;;;;;;;;;18.91;48.45;100735.97;5094917;28;1122;-56
2023/08/20 10:46:21;;;;;;;;;;;;;;;18.96;48.02;100729.59;5082548;28;1086;-57
2023/08/20 10:48:48;;;;;;;;;;;;;;;19.02;47.78;100728.41;5082565;28;998;-55
2023/08/20 10:51:15;;;;;;;;;;;;;;;18.95;47.79;100716.94;5095817;28;1972;-59
2023/08/20 10:53:41;;;;;;;;;;;;;;;19.00;47.53;100718.81;5076341;28;956;-59
2023/08/20 10:56:08;;;;;;;;;;;;;;;19.00;47.40;100708.63;5089475;28;1056;-58
2023/08/20 10:58:33;;;;;;;;;;;;;;;19.08;47.06;100721.75;5078164;28;1840;-56
2023/08/20 11:01:17;;;;;;;;;;;;;;;19.03;47.35;100724.56;5099835;28;888;-57
2023/08/20 11:03:45;;;;;;;;;;;;;;;19.05;47.18;100727.84;5086650;28;1078;-56
2023/08/20 11:06:11;;;;;;;;;;;;;;;19.01;47.02;100710.25;5089314;28;1097;-56
2023/08/20 11:08:37;;;;;;;;;;;;;;;19.04;48.58;100715.19;5075908;28;1011;-54
2023/08/20 11:11:03;;;;;;;;;;;;;;;16.58;57.39;100723.53;5075747;28;1914;-54
2023/08/20 11:13:29;;;;;;;;;;;;;;;18.64;51.58;100711.69;5085769;28;894;-55
2023/08/20 11:15:55;;;;;;;;;;;;;;;18.88;50.57;100720.00;5095786;28;1015;-63
2023/08/20 11:18:20;;;;;;;;;;;;;;;18.87;49.75;100712.00;5068356;28;1209;-64
2023/08/20 11:20:46;;;;;;;;;;;;;;;19.05;48.70;100710.50;5076355;28;1196;-63
2023/08/20 11:23:12;;;;;;;;;;;;;;;19.14;49.19;100695.78;5075860;28;1027;-59
2023/08/20 11:25:42;;;;;;;;;;;;;;;16.54;57.63;100705.97;5089356;28;857;-59
2023/08/20 11:28:07;;;;;;;;;;;;;;;18.56;51.76;100706.78;5084720;28;1800;-53
2023/08/20 11:30:33;;;;;;;;;;;;;;;18.93;50.68;100699.88;5087506;28;1961;-55
2023/08/20 11:32:58;;;;;;;;;;;;;;;16.13;58.75;100705.94;5077200;28;1119;-55
2023/08/20 11:35:24;;;;;;;;;;;;;;;18.30;52.18;100690.50;5075606;28;1105;-58
2023/08/20 11:37:49;;;;;;;;;;;;;;;18.71;50.64;100705.84;5081731;28;1004;-57
2023/08/20 11:40:15;;;;;;;;;;;;;;;18.77;49.65;100699.97;5087959;28;1114;-57
2023/08/20 11:42:40;;;;;;;;;;;;;;;18.81;49.23;100701.03;5097997;28;995;-58
2023/08/20 11:45:06;;;;;;;;;;;;;;;18.88;48.51;100694.41;5087346;28;1398;-58
2023/08/20 11:47:38;;;;;;;;;;;;;;;18.93;48.34;100688.84;5079101;28;1308;-60
2023/08/20 11:50:04;;;;;;;;;;;;;;;18.87;48.29;100684.47;5098990;28;1963;-56
2023/08/20 11:52:30;;;;;;;;;;;;;;;18.86;48.35;100686.41;5092716;28;1086;-61
2023/08/20 11:54:56;;;;;;;;;;;;;;;18.98;47.81;100683.28;5079000;28;1027;-58
2023/08/20 11:57:21;;;;;;;;;;;;;;;18.94;47.97;100676.69;5075053;28;1063;-55
2023/08/20 11:59:47;;;;;;;;;;;;;;;19.02;47.77;100686.28;5080445;28;2223;-57
2023/08/20 12:02:12;;;;;;;;;;;;;;;18.95;47.94;100667.34;5078481;28;1054;-55
2023/08/20 12:04:38;;;;;;;;;;;;;;;19.02;48.03;100684.34;5079008;28;1047;-56
2023/08/20 12:07:13;;;;;;;;;;;;;;;19.07;47.82;100692.56;5092168;28;1070;-57
2023/08/20 12:09:38;;;;;;;;;;;;;;;19.11;47.59;100677.06;5079260;28;1914;-55
2023/08/20 12:12:05;;;;;;;;;;;;;;;19.07;47.56;100678.78;5098165;28;1010;-59
2023/08/20 12:14:30;;;;;;;;;;;;;;;19.14;47.48;100676.47;5085911;28;1067;-58
2023/08/20 12:16:56;;;;;;;;;;;;;;;19.18;47.34;100681.41;5091462;28;1200;-58
2023/08/20 12:19:22;;;;;;;;;;;;;;;16.32;55.15;100679.63;5093098;28;1079;-56
2023/08/20 12:21:48;;;;;;;;;;;;;;;18.30;49.15;100673.97;5099120;28;978;-59
2023/08/20 12:24:14;;;;;;;;;;;;;;;18.67;48.05;100666.22;5096973;28;1007;-57
2023/08/20 12:26:40;;;;;;;;;;;;;;;18.70;48.00;100671.94;5086866;28;1123;-56
2023/08/20 12:29:05;;;;;;;;;;;;;;;18.87;47.41;100676.19;5094452;28;1795;-57
2023/08/20 12:31:31;;;;;;;;;;;;;;;18.87;47.47;100681.72;5084837;28;1906;-56
2023/08/20 12:33:57;;;;;;;;;;;;;;;18.96;47.30;100682.75;5085357;28;1158;-58
2023/08/20 12:36:22;;;;;;;;;;;;;;;18.97;47.41;100676.09;5083059;28;1100;-59
2023/08/20 12:38:48;;;;;;;;;;;;;;;18.93;47.69;100680.59;5098342;28;1083;-59
2023/08/20 12:41:14;;;;;;;;;;;;;;;19.06;47.42;100671.59;5092046;28;1063;-59
2023/08/20 12:43:39;;;;;;;;;;;;;;;19.04;47.30;100673.00;5073725;28;1194;-58